Cezanne — H3NH — position and weather

sailwx.info

Track history (hours):
 
Tides and Currents Weather Stations Pressure Air Temp Water Temp Dewpoint Dewpoint Depression Visibility Wind Speed Wind Dir Waves Ship Positions

Cezanne

Last reported at 2018-Feb-17 11:47 UTC. Time now 2018-Feb-22 05:08 UTC.
Position S 24°07' W 046°23'.

Length 300 m; draft 13.5 m.

Type: Cargo ship. MMSI: 353300000.

Date/timePositionNaut miles runAvg speedWind from/ knotsBaromVisibWave heightAir tempDewpointWater temp
2018-Feb-17 11:47S 24°07' W 046°23'414.6
2018-Feb-17 11:30S 24°03' W 046°21'4 7.6
2018-Feb-17 10:59S 23°60' W 046°19'2 5.0
2018-Feb-17 10:30S 23°57' W 046°18'3 6.2
2018-Feb-17 10:01S 23°55' W 046°21'0 0.0
2018-Feb-17 06:52S 23°55' W 046°21'0 0.0
2018-Feb-17 05:34S 23°55' W 046°21'0 0.1
2018-Feb-17 05:22S 23°55' W 046°21'0 0.0
2018-Feb-17 04:58S 23°55' W 046°21'0 0.0
2018-Feb-17 04:22S 23°55' W 046°21'0 0.0
2018-Feb-17 03:52S 23°55' W 046°21'0 0.0
2018-Feb-16 20:34S 23°55' W 046°21'0 0.0
2018-Feb-16 20:10S 23°55' W 046°21'0 0.0
2018-Feb-16 19:34S 23°55' W 046°21'0 0.1
2018-Feb-16 19:28S 23°55' W 046°21'0 0.0
2018-Feb-16 18:52S 23°55' W 046°21'0 0.0
2018-Feb-16 18:28S 23°55' W 046°21'0 0.0
2018-Feb-16 17:04S 23°55' W 046°21'0 0.0
2018-Feb-16 17:01S 23°55' W 046°21'0 0.0
2018-Feb-16 16:22S 23°55' W 046°21'0 0.0
2018-Feb-16 15:58S 23°55' W 046°21'0 0.0
2018-Feb-16 14:34S 23°55' W 046°21'0 0.0
2018-Feb-16 14:28S 23°55' W 046°21'0 0.0
2018-Feb-16 13:52S 23°55' W 046°21'0 0.0
2018-Feb-16 13:25S 23°55' W 046°21'0 0.0
2018-Feb-16 12:58S 23°55' W 046°21'0 0.0
2018-Feb-16 12:25S 23°55' W 046°21'0 0.0
2018-Feb-16 11:58S 23°55' W 046°21'0 0.0
2018-Feb-16 11:28S 23°55' W 046°21'0 0.0
2018-Feb-16 10:16S 23°55' W 046°21'0 0.0
2018-Feb-16 09:46S 23°55' W 046°21'0 0.1
2018-Feb-16 09:28S 23°55' W 046°21'0 0.0
2018-Feb-16 08:52S 23°55' W 046°21'0 0.0
2018-Feb-16 08:22S 23°55' W 046°21'0 0.0
2018-Feb-16 07:52S 23°55' W 046°21'0 0.0
2018-Feb-16 07:10S 23°55' W 046°21'0 0.0
2018-Feb-16 06:58S 23°55' W 046°21'0 0.0
2018-Feb-16 06:22S 23°55' W 046°21'0 0.0
2018-Feb-16 05:58S 23°55' W 046°21'0 0.0
2018-Feb-16 05:28S 23°55' W 046°21'0 0.0
2018-Feb-16 04:46S 23°55' W 046°21'0 0.0
2018-Feb-16 04:25S 23°55' W 046°21'0 0.0
2018-Feb-16 03:52S 23°55' W 046°21'0 0.0
2018-Feb-16 03:28S 23°55' W 046°21'0 0.0
2018-Feb-16 02:52S 23°55' W 046°21'0 0.0
2018-Feb-16 02:16S 23°55' W 046°21'0 0.0
2018-Feb-16 01:58S 23°55' W 046°21'0 0.0
2018-Feb-16 01:28S 23°55' W 046°21'0 0.0
2018-Feb-16 00:58S 23°55' W 046°21'0 0.0
2018-Feb-16 00:28S 23°55' W 046°21'0 0.0
2018-Feb-15 23:10S 23°55' W 046°21'0 0.0
2018-Feb-15 22:58S 23°55' W 046°21'0 0.0
2018-Feb-15 22:28S 23°55' W 046°21'0 0.0
2018-Feb-15 21:58S 23°55' W 046°21'0 0.0
2018-Feb-15 21:28S 23°55' W 046°21'0 0.0
2018-Feb-15 20:34S 23°55' W 046°21'0 0.1
2018-Feb-15 20:28S 23°55' W 046°21'0 0.0
2018-Feb-15 19:58S 23°55' W 046°21'0 0.0
2018-Feb-15 19:28S 23°55' W 046°21'0 0.0
2018-Feb-15 19:01S 23°55' W 046°21'0 0.0
2018-Feb-15 18:28S 23°55' W 046°21'0 0.0
2018-Feb-15 17:58S 23°55' W 046°21'0 0.3
2018-Feb-15 17:30S 23°55' W 046°21'1 2.6
2018-Feb-15 17:00S 23°56' W 046°20'4 7.5
2018-Feb-15 16:29S 23°59' W 046°17'4 7.3
2018-Feb-15 15:59S 24°01' W 046°21'6 9.6
2018-Feb-15 15:21S 24°07' W 046°23'11 7.4
2018-Feb-15 13:50S 24°18' W 046°26'3 9.3
2018-Feb-15 13:30S 24°21' W 046°27'  
Track history (hours):
 
Tides and Currents Weather Stations Pressure Air Temp Water Temp Dewpoint Dewpoint Depression Visibility Wind Speed Wind Dir Waves Ship Positions

Cezanne

Last reported at 2018-Feb-17 11:47 UTC. Time now 2018-Feb-22 05:08 UTC.
Position S 24°07' W 046°23'.

Length 300 m; draft 13.5 m.

Type: Cargo ship. MMSI: 353300000.

Date/timePositionNaut miles runAvg speedWind from/ knotsBaromVisibWave heightAir tempDewpointWater temp
2018-Feb-17 11:47S 24°07' W 046°23'414.6
2018-Feb-17 11:30S 24°03' W 046°21'4 7.6
2018-Feb-17 10:59S 23°60' W 046°19'2 5.0
2018-Feb-17 10:30S 23°57' W 046°18'3 6.2
2018-Feb-17 10:01S 23°55' W 046°21'0 0.0
2018-Feb-17 06:52S 23°55' W 046°21'0 0.0
2018-Feb-17 05:34S 23°55' W 046°21'0 0.1
2018-Feb-17 05:22S 23°55' W 046°21'0 0.0
2018-Feb-17 04:58S 23°55' W 046°21'0 0.0
2018-Feb-17 04:22S 23°55' W 046°21'0 0.0
2018-Feb-17 03:52S 23°55' W 046°21'0 0.0
2018-Feb-16 20:34S 23°55' W 046°21'0 0.0
2018-Feb-16 20:10S 23°55' W 046°21'0 0.0
2018-Feb-16 19:34S 23°55' W 046°21'0 0.1
2018-Feb-16 19:28S 23°55' W 046°21'0 0.0
2018-Feb-16 18:52S 23°55' W 046°21'0 0.0
2018-Feb-16 18:28S 23°55' W 046°21'0 0.0
2018-Feb-16 17:04S 23°55' W 046°21'0 0.0
2018-Feb-16 17:01S 23°55' W 046°21'0 0.0
2018-Feb-16 16:22S 23°55' W 046°21'0 0.0
2018-Feb-16 15:58S 23°55' W 046°21'0 0.0
2018-Feb-16 14:34S 23°55' W 046°21'0 0.0
2018-Feb-16 14:28S 23°55' W 046°21'0 0.0
2018-Feb-16 13:52S 23°55' W 046°21'0 0.0
2018-Feb-16 13:25S 23°55' W 046°21'0 0.0
2018-Feb-16 12:58S 23°55' W 046°21'0 0.0
2018-Feb-16 12:25S 23°55' W 046°21'0 0.0
2018-Feb-16 11:58S 23°55' W 046°21'0 0.0
2018-Feb-16 11:28S 23°55' W 046°21'0 0.0
2018-Feb-16 10:16S 23°55' W 046°21'0 0.0
2018-Feb-16 09:46S 23°55' W 046°21'0 0.1
2018-Feb-16 09:28S 23°55' W 046°21'0 0.0
2018-Feb-16 08:52S 23°55' W 046°21'0 0.0
2018-Feb-16 08:22S 23°55' W 046°21'0 0.0
2018-Feb-16 07:52S 23°55' W 046°21'0 0.0
2018-Feb-16 07:10S 23°55' W 046°21'0 0.0
2018-Feb-16 06:58S 23°55' W 046°21'0 0.0
2018-Feb-16 06:22S 23°55' W 046°21'0 0.0
2018-Feb-16 05:58S 23°55' W 046°21'0 0.0
2018-Feb-16 05:28S 23°55' W 046°21'0 0.0
2018-Feb-16 04:46S 23°55' W 046°21'0 0.0
2018-Feb-16 04:25S 23°55' W 046°21'0 0.0
2018-Feb-16 03:52S 23°55' W 046°21'0 0.0
2018-Feb-16 03:28S 23°55' W 046°21'0 0.0
2018-Feb-16 02:52S 23°55' W 046°21'0 0.0
2018-Feb-16 02:16S 23°55' W 046°21'0 0.0
2018-Feb-16 01:58S 23°55' W 046°21'0 0.0
2018-Feb-16 01:28S 23°55' W 046°21'0 0.0
2018-Feb-16 00:58S 23°55' W 046°21'0 0.0
2018-Feb-16 00:28S 23°55' W 046°21'0 0.0
2018-Feb-15 23:10S 23°55' W 046°21'0 0.0
2018-Feb-15 22:58S 23°55' W 046°21'0 0.0
2018-Feb-15 22:28S 23°55' W 046°21'0 0.0
2018-Feb-15 21:58S 23°55' W 046°21'0 0.0
2018-Feb-15 21:28S 23°55' W 046°21'0 0.0
2018-Feb-15 20:34S 23°55' W 046°21'0 0.1
2018-Feb-15 20:28S 23°55' W 046°21'0 0.0
2018-Feb-15 19:58S 23°55' W 046°21'0 0.0
2018-Feb-15 19:28S 23°55' W 046°21'0 0.0
2018-Feb-15 19:01S 23°55' W 046°21'0 0.0
2018-Feb-15 18:28S 23°55' W 046°21'0 0.0
2018-Feb-15 17:58S 23°55' W 046°21'0 0.3
2018-Feb-15 17:30S 23°55' W 046°21'1 2.6
2018-Feb-15 17:00S 23°56' W 046°20'4 7.5
2018-Feb-15 16:29S 23°59' W 046°17'4 7.3
2018-Feb-15 15:59S 24°01' W 046°21'6 9.6
2018-Feb-15 15:21S 24°07' W 046°23'11 7.4
2018-Feb-15 13:50S 24°18' W 046°26'3 9.3
2018-Feb-15 13:30S 24°21' W 046°27'  

Dump ship's entire track history